createdAt,value
2023-01-13T00:01:22.322Z,-2.53
2023-01-13T00:03:50.234Z,-2.53
2023-01-13T00:06:23.150Z,-2.53
2023-01-13T00:08:51.847Z,-2.53
2023-01-13T00:11:20.199Z,-2.54
2023-01-13T00:13:50.870Z,-2.50
2023-01-13T00:16:19.389Z,-2.55
2023-01-13T00:18:48.183Z,-2.52
2023-01-13T00:21:24.254Z,-2.58
2023-01-13T00:23:55.407Z,-2.55
2023-01-13T00:26:31.036Z,-2.54
2023-01-13T00:28:59.360Z,-2.61
2023-01-13T00:31:28.419Z,-2.55
2023-01-13T00:34:00.171Z,-2.53
2023-01-13T00:36:28.316Z,-2.56
2023-01-13T00:38:55.464Z,-2.62
2023-01-13T00:41:24.955Z,-2.65
2023-01-13T00:43:51.908Z,-2.74
2023-01-13T00:46:21.335Z,-2.65
2023-01-13T00:48:48.751Z,-2.64
2023-01-13T00:51:20.947Z,-2.66
2023-01-13T00:53:50.644Z,-2.68
2023-01-13T00:56:39.206Z,-2.69
2023-01-13T00:59:08.080Z,-2.68
2023-01-13T01:01:36.052Z,-2.66
2023-01-13T01:04:03.564Z,-2.70
2023-01-13T01:06:36.282Z,-2.70
2023-01-13T01:09:04.735Z,-2.68
2023-01-13T01:11:33.185Z,-2.73
2023-01-13T01:14:03.797Z,-2.76
2023-01-13T01:16:32.892Z,-2.74
2023-01-13T01:19:03.359Z,-2.74
2023-01-13T01:21:31.570Z,-2.73
2023-01-13T01:24:01.343Z,-2.74
2023-01-13T01:26:31.153Z,-2.70
2023-01-13T01:28:59.079Z,-2.77
2023-01-13T01:31:31.907Z,-2.73
2023-01-13T01:34:00.296Z,-2.74
2023-01-13T01:36:31.251Z,-2.72
2023-01-13T01:38:59.368Z,-2.74
2023-01-13T01:41:30.065Z,-2.76
2023-01-13T01:44:51.880Z,-2.70
2023-01-13T01:47:22.398Z,-2.65
2023-01-13T01:49:50.117Z,-2.61
2023-01-13T01:52:39.026Z,-2.58
2023-01-13T01:55:16.490Z,-2.51
2023-01-13T01:57:55.264Z,-2.51
2023-01-13T02:00:22.758Z,-2.53
2023-01-13T02:02:53.247Z,-2.54
2023-01-13T02:05:21.087Z,-2.51
2023-01-13T02:07:51.695Z,-2.49
2023-01-13T02:10:22.697Z,-2.52
2023-01-13T02:12:51.575Z,-2.51
2023-01-13T02:15:27.484Z,-2.47
2023-01-13T02:18:09.855Z,-2.45
2023-01-13T02:20:54.350Z,-2.45
2023-01-13T02:23:40.169Z,-2.45
2023-01-13T02:26:26.335Z,-2.44
2023-01-13T02:29:27.866Z,-2.46
2023-01-13T02:32:02.836Z,-2.46
2023-01-13T02:34:48.605Z,-2.44
2023-01-13T02:37:28.953Z,-2.45
2023-01-13T02:40:25.224Z,-2.44
2023-01-13T02:43:28.166Z,-2.46
2023-01-13T02:46:05.253Z,-2.48
2023-01-13T02:48:34.261Z,-2.51
2023-01-13T02:51:08.308Z,-2.50
2023-01-13T02:53:53.687Z,-2.51
2023-01-13T02:56:24.304Z,-2.52
2023-01-13T02:58:54.848Z,-2.50
2023-01-13T03:01:23.321Z,-2.52
2023-01-13T03:03:50.795Z,-2.52
2023-01-13T03:06:51.805Z,-2.51
2023-01-13T03:09:45.657Z,-2.52
2023-01-13T03:12:24.717Z,-2.51
2023-01-13T03:15:22.084Z,-2.46
2023-01-13T03:18:02.805Z,-2.44
2023-01-13T03:20:37.560Z,-2.42
2023-01-13T03:26:32.993Z,-2.37
2023-01-13T03:29:07.792Z,-2.35
2023-01-13T03:31:50.455Z,-2.37
2023-01-13T03:34:20.755Z,-2.31
2023-01-13T03:36:51.857Z,-2.30
2023-01-13T03:39:27.185Z,-2.33
2023-01-13T03:42:07.789Z,-2.33
2023-01-13T03:44:47.827Z,-2.29
2023-01-13T03:47:34.818Z,-2.30
2023-01-13T03:50:14.671Z,-2.33
2023-01-13T03:52:47.479Z,-2.34
2023-01-13T03:55:19.100Z,-2.35
2023-01-13T03:57:52.318Z,-2.35
2023-01-13T04:00:26.512Z,-2.34
2023-01-13T04:03:08.292Z,-2.35
2023-01-13T04:05:41.444Z,-2.37
2023-01-13T04:08:14.480Z,-2.35
2023-01-13T04:10:53.044Z,-2.40
2023-01-13T04:13:24.449Z,-2.33
2023-01-13T04:15:52.228Z,-2.34
2023-01-13T04:18:28.916Z,-2.34
2023-01-13T04:21:01.443Z,-2.41
2023-01-13T04:23:29.121Z,-2.33
2023-01-13T04:25:56.992Z,-2.33
2023-01-13T04:28:24.985Z,-2.37
2023-01-13T04:30:52.751Z,-2.38
2023-01-13T04:33:21.203Z,-2.37
2023-01-13T04:35:51.269Z,-2.39
2023-01-13T04:38:19.745Z,-2.41
2023-01-13T04:40:48.833Z,-2.43
2023-01-13T04:43:16.851Z,-2.45
2023-01-13T04:45:44.882Z,-2.45
2023-01-13T04:48:12.266Z,-2.47
2023-01-13T04:50:39.958Z,-2.48
2023-01-13T04:53:07.260Z,-2.50
2023-01-13T04:55:35.439Z,-2.52
2023-01-13T04:58:11.772Z,-2.59
2023-01-13T05:00:40.549Z,-2.60
2023-01-13T05:03:08.282Z,-2.67
2023-01-13T05:05:35.820Z,-2.75
2023-01-13T05:08:03.367Z,-2.75
2023-01-13T05:10:31.094Z,-2.74
2023-01-13T05:16:22.806Z,-2.74
2023-01-13T05:18:54.624Z,-2.78
2023-01-13T05:21:40.978Z,-2.82
2023-01-13T05:24:28.382Z,-2.85
2023-01-13T05:26:56.294Z,-2.89
2023-01-13T05:29:23.290Z,-2.93
2023-01-13T05:31:50.738Z,-2.95
2023-01-13T05:34:17.933Z,-2.94
2023-01-13T05:36:46.131Z,-2.92
2023-01-13T05:39:13.791Z,-2.93
2023-01-13T05:42:00.809Z,-2.93
2023-01-13T05:44:28.131Z,-2.91
2023-01-13T05:46:56.959Z,-2.96
2023-01-13T05:49:25.001Z,-2.91
2023-01-13T05:51:54.769Z,-2.92
2023-01-13T05:54:22.063Z,-2.89
2023-01-13T05:56:49.407Z,-2.96
2023-01-13T05:59:16.528Z,-2.94
2023-01-13T06:01:48.233Z,-2.93
2023-01-13T06:04:15.448Z,-2.94
2023-01-13T06:06:45.805Z,-2.97
2023-01-13T06:09:15.662Z,-2.96
2023-01-13T06:11:46.979Z,-2.95
2023-01-13T06:14:15.344Z,-3.02
2023-01-13T06:16:42.675Z,-3.04
2023-01-13T06:19:13.086Z,-3.07
2023-01-13T06:21:41.209Z,-3.04
2023-01-13T06:24:11.073Z,-3.07
2023-01-13T06:26:40.295Z,-3.03
2023-01-13T06:29:09.333Z,-3.06
2023-01-13T06:31:39.946Z,-3.02
2023-01-13T06:34:12.988Z,-3.01
2023-01-13T06:36:52.810Z,-3.12
2023-01-13T06:39:23.530Z,-3.12
2023-01-13T06:44:57.543Z,-3.11
2023-01-13T06:47:26.144Z,-3.08
2023-01-13T06:49:53.735Z,-3.04
2023-01-13T06:52:21.714Z,-3.02
2023-01-13T06:54:48.942Z,-2.97
2023-01-13T06:57:16.398Z,-2.98
2023-01-13T06:59:46.085Z,-2.95
2023-01-13T07:02:14.659Z,-2.89
2023-01-13T07:04:45.008Z,-2.87
2023-01-13T07:09:54.917Z,-2.79
2023-01-13T07:12:22.524Z,-2.77
2023-01-13T07:15:15.246Z,-2.79
2023-01-13T07:17:51.917Z,-2.77
2023-01-13T07:20:19.652Z,-2.73
2023-01-13T07:22:47.391Z,-2.78
2023-01-13T07:25:14.433Z,-2.70
2023-01-13T07:27:45.062Z,-2.65
2023-01-13T07:30:12.696Z,-2.65
2023-01-13T07:32:40.327Z,-2.62
2023-01-13T07:35:10.033Z,-2.60
2023-01-13T07:37:40.233Z,-2.59
2023-01-13T07:40:08.923Z,-2.54
2023-01-13T07:42:59.497Z,-2.52
2023-01-13T07:45:29.605Z,-2.45
2023-01-13T07:48:00.433Z,-2.36
2023-01-13T07:50:27.742Z,-2.33
2023-01-13T07:53:00.969Z,-2.26
2023-01-13T07:55:32.937Z,-2.28
2023-01-13T07:58:02.129Z,-2.34
2023-01-13T08:00:29.387Z,-2.28
2023-01-13T08:02:56.763Z,-2.21
2023-01-13T08:05:23.852Z,-2.13
2023-01-13T08:07:51.324Z,-2.05
2023-01-13T08:10:18.803Z,-1.99
2023-01-13T08:13:05.328Z,-1.90
2023-01-13T08:18:23.329Z,-1.89
2023-01-13T08:20:52.719Z,-1.87
2023-01-13T08:23:24.145Z,-1.92
2023-01-13T08:25:51.205Z,-1.92
2023-01-13T08:28:18.580Z,-1.98
2023-01-13T08:30:45.966Z,-2.01
2023-01-13T08:33:14.580Z,-1.99
2023-01-13T08:36:09.695Z,-2.03
2023-01-13T08:38:40.456Z,-2.07
2023-01-13T08:41:37.751Z,-2.04
2023-01-13T08:44:06.656Z,-1.95
2023-01-13T08:46:33.813Z,-1.95
2023-01-13T08:49:01.427Z,-1.94
2023-01-13T08:51:28.589Z,-1.88
2023-01-13T08:53:55.910Z,-1.89
2023-01-13T08:56:24.780Z,-1.93
2023-01-13T08:58:52.220Z,-1.91
2023-01-13T09:01:23.297Z,-1.95
2023-01-13T09:03:51.091Z,-1.95
2023-01-13T09:06:18.202Z,-1.95
2023-01-13T09:08:46.420Z,-1.93
2023-01-13T09:11:48.295Z,-1.90
2023-01-13T09:14:20.360Z,-1.87
2023-01-13T09:16:48.572Z,-1.91
2023-01-13T09:19:17.188Z,-1.95
2023-01-13T09:21:44.182Z,-1.98
2023-01-13T09:24:12.227Z,-1.96
2023-01-13T09:26:42.834Z,-1.93
2023-01-13T09:29:10.701Z,-1.81
2023-01-13T09:31:37.841Z,-1.74
2023-01-13T09:34:25.962Z,-1.75
2023-01-13T09:36:53.133Z,-1.73
2023-01-13T09:39:26.188Z,-1.71
2023-01-13T09:42:20.588Z,-1.79
2023-01-13T09:44:55.877Z,-1.72
2023-01-13T09:47:32.905Z,-1.72
2023-01-13T09:50:21.559Z,-1.66
2023-01-13T09:52:52.815Z,-1.61
2023-01-13T09:55:31.168Z,-1.61
2023-01-13T09:57:58.623Z,-1.59
2023-01-13T10:00:34.652Z,-1.63
2023-01-13T10:03:25.086Z,-1.61
2023-01-13T10:06:18.421Z,-1.58
2023-01-13T10:08:48.156Z,-1.63
2023-01-13T10:11:57.000Z,-1.70
2023-01-13T10:14:38.299Z,-1.68
2023-01-13T10:17:36.720Z,-1.67
2023-01-13T10:20:24.990Z,-1.68
2023-01-13T10:23:02.084Z,-1.66
2023-01-13T10:25:44.314Z,-1.68
2023-01-13T10:28:14.708Z,-1.69
2023-01-13T10:30:44.490Z,-1.69
2023-01-13T10:33:21.384Z,-1.57
2023-01-13T10:35:51.674Z,-1.55
2023-01-13T10:38:48.306Z,-1.51
2023-01-13T10:41:15.769Z,-1.37
2023-01-13T10:43:57.356Z,-1.29
2023-01-13T10:46:24.524Z,-1.19
2023-01-13T10:48:57.528Z,-1.14
2023-01-13T10:51:43.949Z,-1.10
2023-01-13T10:54:11.713Z,-1.04
2023-01-13T10:56:45.577Z,-1.05
2023-01-13T10:59:30.206Z,-1.05
2023-01-13T11:02:13.041Z,-1.14
2023-01-13T11:04:53.570Z,-1.15
2023-01-13T11:07:36.656Z,-1.24
2023-01-13T11:10:27.823Z,-1.29
2023-01-13T11:13:18.789Z,-1.26
2023-01-13T11:16:14.386Z,-1.27
2023-01-13T11:19:02.437Z,-1.22
2023-01-13T11:21:52.516Z,-1.19
2023-01-13T11:24:38.076Z,-1.24
2023-01-13T11:27:21.217Z,-1.22
2023-01-13T11:29:59.262Z,-1.21
2023-01-13T11:32:31.125Z,-1.25
2023-01-13T11:35:03.338Z,-1.33
2023-01-13T11:37:36.657Z,-1.39
2023-01-13T11:40:40.941Z,-1.37
2023-01-13T11:43:48.171Z,-1.50
2023-01-13T11:46:19.043Z,-1.40
2023-01-13T11:48:55.474Z,-1.34
2023-01-13T11:51:34.732Z,-1.42
2023-01-13T11:55:07.855Z,-1.54
2023-01-13T12:00:56.228Z,-1.55
2023-01-13T12:03:36.455Z,-1.55
2023-01-13T12:06:22.891Z,-1.49
2023-01-13T12:09:22.866Z,-1.44
2023-01-13T12:12:14.810Z,-1.47
2023-01-13T12:15:00.385Z,-1.46
2023-01-13T12:17:57.561Z,-1.46
2023-01-13T12:20:54.124Z,-1.46
2023-01-13T12:24:02.319Z,-1.40
2023-01-13T12:26:35.867Z,-1.38
2023-01-13T12:29:07.617Z,-1.34
2023-01-13T12:31:39.228Z,-1.35
2023-01-13T12:34:27.091Z,-1.39
2023-01-13T12:36:58.766Z,-1.39
2023-01-13T12:39:42.464Z,-1.45
2023-01-13T12:42:53.215Z,-1.47
2023-01-13T12:45:31.327Z,-1.47
2023-01-13T12:48:00.770Z,-1.51
2023-01-13T12:50:29.536Z,-1.43
2023-01-13T12:52:59.042Z,-1.37
2023-01-13T12:55:32.018Z,-1.33
2023-01-13T12:58:02.634Z,-1.33
2023-01-13T13:00:38.228Z,-1.34
2023-01-13T13:03:12.237Z,-1.39
2023-01-13T13:06:23.356Z,-1.41
2023-01-13T13:09:16.253Z,-1.36
2023-01-13T13:11:59.818Z,-1.33
2023-01-13T13:14:39.267Z,-1.35
2023-01-13T13:17:34.359Z,-1.29
2023-01-13T13:20:58.830Z,-1.36
2023-01-13T13:23:39.693Z,-1.39
2023-01-13T13:26:37.970Z,-1.44
2023-01-13T13:29:28.738Z,-1.41
2023-01-13T13:32:22.064Z,-1.49
2023-01-13T13:34:58.461Z,-1.51
2023-01-13T13:38:09.645Z,-1.62
2023-01-13T13:41:03.491Z,-1.66
2023-01-13T13:43:59.171Z,-1.73
2023-01-13T13:46:47.435Z,-1.69
2023-01-13T13:49:14.801Z,-1.73
2023-01-13T13:52:07.482Z,-1.76
2023-01-13T13:54:35.664Z,-1.72
2023-01-13T13:57:02.758Z,-1.77
2023-01-13T13:59:30.969Z,-1.68
2023-01-13T14:02:01.841Z,-1.67
2023-01-13T14:04:40.808Z,-1.71
2023-01-13T14:07:21.957Z,-1.75
2023-01-13T14:09:54.439Z,-1.76
2023-01-13T14:12:24.139Z,-1.69
2023-01-13T14:14:52.366Z,-1.69
2023-01-13T14:17:25.580Z,-1.64
2023-01-13T14:20:09.650Z,-1.69
2023-01-13T14:22:36.743Z,-1.76
2023-01-13T14:28:23.923Z,-1.74
2023-01-13T14:30:54.097Z,-1.81
2023-01-13T14:36:43.321Z,-1.84
2023-01-13T14:39:14.959Z,-1.90
2023-01-13T14:41:42.541Z,-1.92
2023-01-13T14:44:21.341Z,-1.96
2023-01-13T14:46:49.244Z,-1.97
2023-01-13T14:49:55.300Z,-1.89
2023-01-13T14:52:33.719Z,-1.89
2023-01-13T14:55:10.317Z,-1.84
2023-01-13T14:57:41.445Z,-1.88
2023-01-13T15:00:14.536Z,-1.90
2023-01-13T15:02:58.326Z,-1.89
2023-01-13T15:05:25.632Z,-1.91
2023-01-13T15:08:05.427Z,-1.87
2023-01-13T15:10:38.639Z,-1.86
2023-01-13T15:13:19.169Z,-1.83
2023-01-13T15:15:51.102Z,-1.83
2023-01-13T15:18:18.557Z,-1.86
2023-01-13T15:20:46.141Z,-1.89
2023-01-13T15:23:14.589Z,-1.86
2023-01-13T15:25:43.078Z,-1.86
2023-01-13T15:28:27.663Z,-1.83
2023-01-13T15:31:00.768Z,-1.84
2023-01-13T15:33:28.152Z,-1.84
2023-01-13T15:35:55.531Z,-1.84
2023-01-13T15:38:25.095Z,-1.79
2023-01-13T15:40:53.021Z,-1.77
2023-01-13T15:43:41.017Z,-1.81
2023-01-13T15:46:38.255Z,-1.83
2023-01-13T15:49:15.969Z,-1.87
2023-01-13T15:51:45.052Z,-1.90
2023-01-13T15:54:12.785Z,-1.90
2023-01-13T15:56:42.126Z,-1.91
2023-01-13T15:59:16.919Z,-1.92
2023-01-13T16:01:44.611Z,-1.96
2023-01-13T16:04:12.117Z,-1.97
2023-01-13T16:06:39.364Z,-2.01
2023-01-13T16:09:06.976Z,-2.01
2023-01-13T16:11:33.923Z,-2.03
2023-01-13T16:14:01.620Z,-2.07
2023-01-13T16:16:29.939Z,-2.09
2023-01-13T16:18:57.503Z,-2.12
2023-01-13T16:21:25.074Z,-2.15
2023-01-13T16:23:52.446Z,-2.22
2023-01-13T16:26:21.840Z,-2.16
2023-01-13T16:28:50.849Z,-2.15
2023-01-13T16:31:32.626Z,-2.13
2023-01-13T16:34:35.158Z,-2.12
2023-01-13T16:37:02.373Z,-2.17
2023-01-13T16:39:31.097Z,-2.18
2023-01-13T16:41:58.193Z,-2.21
2023-01-13T16:44:25.632Z,-2.16
2023-01-13T16:46:52.644Z,-2.18
2023-01-13T16:49:19.995Z,-2.17
2023-01-13T16:51:47.084Z,-2.14
2023-01-13T16:54:14.567Z,-2.12
2023-01-13T16:56:45.456Z,-2.11
2023-01-13T16:59:16.624Z,-2.06
2023-01-13T17:01:45.141Z,-2.09
2023-01-13T17:04:16.378Z,-2.02
2023-01-13T17:06:49.174Z,-2.01
2023-01-13T17:09:24.650Z,-2.01
2023-01-13T17:11:52.218Z,-2.07
2023-01-13T17:14:25.790Z,-2.06
2023-01-13T17:16:58.440Z,-2.10
2023-01-13T17:19:26.502Z,-2.15
2023-01-13T17:21:53.642Z,-2.19
2023-01-13T17:24:21.329Z,-2.18
2023-01-13T17:26:50.656Z,-2.15
2023-01-13T17:29:23.256Z,-2.19
2023-01-13T17:31:52.297Z,-2.22
2023-01-13T17:34:21.290Z,-2.18
2023-01-13T17:36:54.866Z,-2.26
2023-01-13T17:39:25.035Z,-2.32
2023-01-13T17:41:56.233Z,-2.34
2023-01-13T17:44:25.163Z,-2.36
2023-01-13T17:46:52.297Z,-2.35
2023-01-13T17:49:28.491Z,-2.33
2023-01-13T17:51:55.748Z,-2.46
2023-01-13T17:54:24.247Z,-2.39
2023-01-13T17:57:40.311Z,-2.42
2023-01-13T18:00:32.118Z,-2.38
2023-01-13T18:02:59.185Z,-2.39
2023-01-13T18:05:26.596Z,-2.37
2023-01-13T18:07:53.607Z,-2.39
2023-01-13T18:10:21.356Z,-2.44
2023-01-13T18:12:50.353Z,-2.42
2023-01-13T18:15:17.680Z,-2.41
2023-01-13T18:17:46.287Z,-2.42
2023-01-13T18:20:40.487Z,-2.46
2023-01-13T18:23:36.022Z,-2.42
2023-01-13T18:26:33.914Z,-2.51
2023-01-13T18:29:02.309Z,-2.46
2023-01-13T18:31:30.207Z,-2.51
2023-01-13T18:34:33.824Z,-2.46
2023-01-13T18:37:07.121Z,-2.49
2023-01-13T18:39:37.342Z,-2.57
2023-01-13T18:42:25.866Z,-2.46
2023-01-13T18:44:53.470Z,-2.49
2023-01-13T18:47:24.733Z,-2.48
2023-01-13T18:49:52.628Z,-2.43
2023-01-13T18:52:21.375Z,-2.48
2023-01-13T18:54:48.829Z,-2.42
2023-01-13T18:57:16.961Z,-2.48
2023-01-13T18:59:43.998Z,-2.36
2023-01-13T19:02:22.823Z,-2.41
2023-01-13T19:04:50.553Z,-2.33
2023-01-13T19:07:23.876Z,-2.34
2023-01-13T19:09:57.047Z,-2.41
2023-01-13T19:12:26.463Z,-2.30
2023-01-13T19:14:58.397Z,-2.27
2023-01-13T19:17:32.953Z,-2.31
2023-01-13T19:20:00.123Z,-2.30
2023-01-13T19:22:31.072Z,-2.29
2023-01-13T19:24:59.493Z,-2.28
2023-01-13T19:27:28.796Z,-2.34
2023-01-13T19:30:02.276Z,-2.39
2023-01-13T19:32:33.031Z,-2.41
2023-01-13T19:35:03.678Z,-2.37
2023-01-13T19:37:33.749Z,-2.33
2023-01-13T19:40:00.605Z,-2.27
2023-01-13T19:42:46.646Z,-2.34
2023-01-13T19:45:27.760Z,-2.37
2023-01-13T19:47:57.317Z,-2.24
2023-01-13T19:50:25.897Z,-2.24
2023-01-13T19:55:35.825Z,-2.29
2023-01-13T19:58:07.134Z,-2.29
2023-01-13T20:00:35.041Z,-2.28
2023-01-13T20:03:10.872Z,-2.31
2023-01-13T20:05:37.995Z,-2.33
2023-01-13T20:08:05.515Z,-2.28
2023-01-13T20:10:32.528Z,-2.34
2023-01-13T20:12:59.838Z,-2.35
2023-01-13T20:15:27.695Z,-2.36
2023-01-13T20:17:55.913Z,-2.29
2023-01-13T20:20:23.009Z,-2.37
2023-01-13T20:22:50.559Z,-2.33
2023-01-13T20:25:18.958Z,-2.24
2023-01-13T20:27:49.452Z,-2.25
2023-01-13T20:30:17.636Z,-2.21
2023-01-13T20:32:45.157Z,-2.25
2023-01-13T20:35:12.431Z,-2.34
2023-01-13T20:37:45.027Z,-2.31
2023-01-13T20:40:17.955Z,-2.28
2023-01-13T20:42:47.749Z,-2.29
2023-01-13T20:45:22.776Z,-2.21
2023-01-13T20:47:50.799Z,-2.22
2023-01-13T20:50:17.863Z,-2.17
2023-01-13T20:52:47.958Z,-2.15
2023-01-13T20:58:05.137Z,-2.14
2023-01-13T21:00:32.392Z,-2.14
2023-01-13T21:03:00.193Z,-2.09
2023-01-13T21:05:28.394Z,-2.07
2023-01-13T21:07:55.676Z,-2.05
2023-01-13T21:10:22.678Z,-2.08
2023-01-13T21:13:11.717Z,-2.09
2023-01-13T21:15:38.803Z,-2.08
2023-01-13T21:18:24.900Z,-2.11
2023-01-13T21:21:12.417Z,-2.08
2023-01-13T21:23:42.149Z,-2.08
2023-01-13T21:26:10.580Z,-2.06
2023-01-13T21:28:40.584Z,-2.07
2023-01-13T21:31:09.472Z,-2.04
2023-01-13T21:33:36.842Z,-2.04
2023-01-13T21:36:12.711Z,-2.01
2023-01-13T21:38:39.888Z,-2.01
2023-01-13T21:41:08.601Z,-2.07
2023-01-13T21:43:58.444Z,-2.06
2023-01-13T21:46:44.307Z,-2.12
2023-01-13T21:49:14.556Z,-2.21
2023-01-13T21:51:44.891Z,-2.26
2023-01-13T21:54:12.058Z,-2.22
2023-01-13T21:56:39.307Z,-2.21
2023-01-13T21:59:06.744Z,-2.26
2023-01-13T22:01:35.051Z,-2.32
2023-01-13T22:04:12.686Z,-2.28
2023-01-13T22:06:39.956Z,-2.30
2023-01-13T22:09:07.493Z,-2.33
2023-01-13T22:11:37.673Z,-2.27
2023-01-13T22:14:10.159Z,-2.28
2023-01-13T22:16:41.694Z,-2.23
2023-01-13T22:19:10.738Z,-2.24
2023-01-13T22:21:38.397Z,-2.23
2023-01-13T22:24:09.134Z,-2.22
2023-01-13T22:26:36.306Z,-2.27
2023-01-13T22:29:03.748Z,-2.32
2023-01-13T22:31:31.797Z,-2.34
2023-01-13T22:33:59.308Z,-2.29
2023-01-13T22:36:26.609Z,-2.34
2023-01-13T22:38:56.000Z,-2.42
2023-01-13T22:41:23.610Z,-2.49
2023-01-13T22:43:51.458Z,-2.47
2023-01-13T22:46:18.716Z,-2.46
2023-01-13T22:48:48.363Z,-2.50
2023-01-13T22:51:16.990Z,-2.51
2023-01-13T22:53:45.729Z,-2.53
2023-01-13T22:56:18.606Z,-2.50
2023-01-13T22:58:46.053Z,-2.53
2023-01-13T23:01:17.690Z,-2.54
2023-01-13T23:03:48.021Z,-2.49
2023-01-13T23:06:19.415Z,-2.54
2023-01-13T23:08:57.613Z,-2.51
2023-01-13T23:11:30.192Z,-2.63
2023-01-13T23:14:08.348Z,-2.53
2023-01-13T23:16:40.980Z,-2.51
2023-01-13T23:19:13.151Z,-2.57
2023-01-13T23:21:40.167Z,-2.53
2023-01-13T23:24:07.977Z,-2.43
2023-01-13T23:26:36.179Z,-2.40
2023-01-13T23:29:09.127Z,-2.35
2023-01-13T23:31:36.312Z,-2.37
2023-01-13T23:34:03.893Z,-2.31
2023-01-13T23:36:31.362Z,-2.32
2023-01-13T23:38:59.699Z,-2.25
2023-01-13T23:41:29.144Z,-2.29
2023-01-13T23:44:00.997Z,-2.33
2023-01-13T23:46:30.269Z,-2.30
2023-01-13T23:48:57.805Z,-2.27
2023-01-13T23:51:26.493Z,-2.25
2023-01-13T23:53:54.499Z,-2.26
2023-01-13T23:56:24.660Z,-2.17
2023-01-13T23:58:52.664Z,-2.17
